Station: Ansbach / Katterbach, ICAO: ETEB, Synop: Synop: 10755,
Koordinaten: 4919'00''N 01038'00''E, Hoehe: 467m, Entfernung: 6.65km
2018/04/22 13:56
ETEB 221356Z AUTO 24012KT 9999 CLR 25/10 A2996 RMK AO2 SLP141 T02500097 $


Station: Illesheim, ICAO: ETIK, Synop: Synop: 10752,
Koordinaten: 4928'00''N 01023'00''E, Hoehe: 325m, Entfernung: 20.61km
2018/04/20 17:56
ETIK 201756Z 25001KT 9999 SCT220 25/09 A3017 RMK AO2A SLP210 WND DATA ESTMD ALSTG/SLP ESTMD


Station: ILLESHEIM (USAF), ICAO: EDIK, Synop: Synop: 10752,
Koordinaten: 49 28 N 010 23 E, Hoehe: 325m, Entfernung: 20.61km


Station: Roth, ICAO: ETHR, Synop: Synop: 10765,
Koordinaten: 4913'00''N 01106'00''E, Hoehe: 388m, Entfernung: 41.86km
2013/12/05 06:53
ETHR 050653Z 25004KT 1200 BR OVC003 02/02 Q1027 AMB


Station: Nuernberg, ICAO: EDDN, Synop: Synop: 10763,
Koordinaten: 4930'00''N 01103'00''E, Hoehe: 318m, Entfernung: 42.25km
2018/04/22 13:50
EDDN 221350Z 26013KT CAVOK 28/07 Q1014 NOSIG


Station: Niederstetten, ICAO: ETHN, Synop: Synop: 10743,
Koordinaten: 4924'00''N 00958'00''E, Hoehe: 468m, Entfernung: 42.74km
2018/04/22 13:20
ETHN 221320Z 24009KT 9999 FEW060TCU BKN300 25/08 Q1015 BLU+


mehr Wetter
WetterInfo - adds.pl 2.6.003 DL3EL © 2004-2017 [374244]